createdAt,value
2022-12-20T00:01:52.146Z,7.15
2022-12-20T00:04:19.854Z,7.55
2022-12-20T00:06:48.765Z,8.07
2022-12-20T00:09:16.310Z,7.22
2022-12-20T00:11:43.983Z,8.25
2022-12-20T00:14:11.729Z,8.10
2022-12-20T00:16:39.607Z,7.50
2022-12-20T00:19:07.848Z,6.47
2022-12-20T00:21:36.060Z,7.85
2022-12-20T00:24:05.533Z,7.43
2022-12-20T00:26:35.130Z,7.65
2022-12-20T00:29:02.724Z,7.25
2022-12-20T00:31:31.635Z,8.52
2022-12-20T00:34:00.972Z,8.60
2022-12-20T00:36:30.723Z,9.32
2022-12-20T00:38:59.019Z,8.23
2022-12-20T00:41:29.913Z,7.43
2022-12-20T00:43:57.491Z,7.22
2022-12-20T00:46:25.706Z,7.50
2022-12-20T00:48:53.733Z,8.77
2022-12-20T00:51:22.894Z,7.68
2022-12-20T00:53:50.604Z,8.43
2022-12-20T00:56:18.745Z,7.65
2022-12-20T00:58:47.731Z,8.73
2022-12-20T01:01:18.342Z,7.68
2022-12-20T01:03:46.135Z,7.88
2022-12-20T01:06:13.832Z,8.35
2022-12-20T01:08:41.411Z,7.70
2022-12-20T01:11:11.790Z,7.10
2022-12-20T01:13:42.209Z,7.90
2022-12-20T01:16:13.584Z,7.80
2022-12-20T01:18:41.290Z,8.07
2022-12-20T01:21:11.173Z,7.18
2022-12-20T01:23:39.014Z,6.72
2022-12-20T01:26:09.163Z,7.05
2022-12-20T01:28:37.639Z,7.97
2022-12-20T01:31:07.651Z,8.10
2022-12-20T01:33:37.340Z,7.25
2022-12-20T01:36:06.714Z,7.88
2022-12-20T01:38:36.089Z,8.18
2022-12-20T01:41:04.316Z,7.53
2022-12-20T01:43:48.699Z,8.50
2022-12-20T01:46:16.554Z,8.38
2022-12-20T01:48:51.946Z,8.43
2022-12-20T01:51:20.245Z,8.27
2022-12-20T01:53:48.921Z,9.50
2022-12-20T01:56:16.500Z,10.77
2022-12-20T01:58:44.954Z,8.65
2022-12-20T02:01:12.688Z,8.60
2022-12-20T02:03:40.369Z,9.20
2022-12-20T02:06:18.125Z,8.30
2022-12-20T02:08:46.999Z,7.85
2022-12-20T02:11:26.069Z,7.45
2022-12-20T02:14:01.978Z,7.53
2022-12-20T02:16:36.878Z,8.05
2022-12-20T02:19:11.811Z,7.68
2022-12-20T02:21:43.730Z,6.95
2022-12-20T02:24:59.446Z,7.28
2022-12-20T02:27:39.199Z,7.20
2022-12-20T02:30:11.363Z,7.43
2022-12-20T02:32:43.340Z,7.50
2022-12-20T02:35:13.962Z,6.30
2022-12-20T02:37:49.402Z,6.95
2022-12-20T02:40:19.624Z,6.93
2022-12-20T02:42:47.657Z,7.05
2022-12-20T02:45:15.865Z,7.97
2022-12-20T02:47:49.314Z,6.97
2022-12-20T02:50:25.572Z,7.28
2022-12-20T02:52:55.453Z,7.28
2022-12-20T02:55:26.298Z,6.95
2022-12-20T02:58:00.417Z,7.93
2022-12-20T03:00:34.610Z,7.68
2022-12-20T03:03:20.042Z,6.60
2022-12-20T03:05:48.605Z,7.03
2022-12-20T03:08:16.281Z,7.15
2022-12-20T03:10:45.784Z,8.68
2022-12-20T03:13:13.561Z,6.90
2022-12-20T03:15:42.667Z,6.75
2022-12-20T03:18:10.263Z,7.05
2022-12-20T03:20:38.053Z,7.68
2022-12-20T03:23:05.943Z,7.55
2022-12-20T03:25:33.534Z,7.07
2022-12-20T03:28:01.091Z,6.70
2022-12-20T03:30:28.687Z,6.63
2022-12-20T03:32:58.117Z,6.55
2022-12-20T03:35:25.704Z,6.68
2022-12-20T03:37:53.290Z,5.85
2022-12-20T03:40:20.888Z,7.78
2022-12-20T03:42:48.449Z,6.78
2022-12-20T03:45:16.157Z,7.15
2022-12-20T03:47:43.682Z,7.40
2022-12-20T03:50:13.028Z,7.10
2022-12-20T03:52:40.641Z,6.88
2022-12-20T03:55:09.763Z,7.05
2022-12-20T03:57:37.639Z,7.85
2022-12-20T04:00:06.589Z,7.45
2022-12-20T04:02:34.279Z,7.03
2022-12-20T04:05:01.956Z,7.13
2022-12-20T04:07:30.866Z,8.55
2022-12-20T04:09:58.467Z,8.52
2022-12-20T04:12:26.019Z,8.20
2022-12-20T04:14:53.824Z,8.38
2022-12-20T04:17:21.393Z,8.25
2022-12-20T04:19:48.938Z,9.02
2022-12-20T04:22:16.531Z,7.05
2022-12-20T04:24:45.488Z,8.90
2022-12-20T04:27:13.328Z,7.95
2022-12-20T04:29:40.948Z,7.78
2022-12-20T04:32:08.533Z,8.35
2022-12-20T04:34:36.109Z,7.90
2022-12-20T04:37:04.161Z,7.10
2022-12-20T04:39:31.927Z,8.80
2022-12-20T04:42:01.017Z,8.15
2022-12-20T04:44:28.607Z,8.18
2022-12-20T04:46:56.192Z,7.90
2022-12-20T04:49:23.792Z,8.60
2022-12-20T04:51:51.558Z,7.95
2022-12-20T04:54:18.228Z,7.55
2022-12-20T04:56:45.822Z,7.40
2022-12-20T04:59:14.751Z,6.85
2022-12-20T05:01:42.560Z,7.40
2022-12-20T05:04:10.275Z,7.40
2022-12-20T05:06:38.055Z,9.30
2022-12-20T05:09:05.721Z,9.27
2022-12-20T05:11:33.331Z,24.60
2022-12-20T05:14:01.036Z,13.32
2022-12-20T05:16:30.042Z,20.77
2022-12-20T05:18:57.689Z,17.52
2022-12-20T05:21:42.763Z,18.02
2022-12-20T05:24:28.618Z,33.00
2022-12-20T05:26:56.643Z,11.38
2022-12-20T05:29:24.210Z,11.45
2022-12-20T05:31:53.594Z,13.68
2022-12-20T05:34:21.369Z,19.23
2022-12-20T05:36:48.960Z,11.13
2022-12-20T05:39:16.878Z,11.00
2022-12-20T05:41:44.653Z,10.70
2022-12-20T05:44:12.493Z,9.50
2022-12-20T05:46:40.367Z,10.10
2022-12-20T05:49:09.339Z,9.98
2022-12-20T05:51:37.144Z,9.48
2022-12-20T05:54:05.724Z,8.98
2022-12-20T05:56:33.547Z,8.43
2022-12-20T05:59:01.477Z,9.02
2022-12-20T06:01:29.195Z,6.95
2022-12-20T06:03:57.124Z,7.40
2022-12-20T06:06:26.377Z,7.68
2022-12-20T06:08:56.094Z,7.30
2022-12-20T06:11:29.635Z,7.13
2022-12-20T06:13:58.493Z,7.35
2022-12-20T06:16:26.248Z,9.25
2022-12-20T06:18:54.010Z,9.32
2022-12-20T06:21:21.906Z,8.95
2022-12-20T06:23:50.894Z,7.97
2022-12-20T06:26:19.073Z,6.85
2022-12-20T06:28:46.781Z,7.60
2022-12-20T06:31:14.689Z,9.40
2022-12-20T06:33:42.514Z,9.65
2022-12-20T06:36:10.343Z,9.93
2022-12-20T06:38:38.180Z,7.93
2022-12-20T06:41:07.303Z,7.93
2022-12-20T06:43:35.062Z,7.50
2022-12-20T06:46:02.796Z,6.28
2022-12-20T06:48:31.143Z,7.20
2022-12-20T06:51:00.144Z,6.57
2022-12-20T06:53:27.877Z,6.05
2022-12-20T06:55:55.705Z,6.32
2022-12-20T06:58:24.662Z,6.82
2022-12-20T07:00:52.359Z,6.07
2022-12-20T07:03:20.144Z,6.78
2022-12-20T07:05:52.532Z,9.65
2022-12-20T07:08:20.135Z,13.88
2022-12-20T07:10:48.339Z,14.60
2022-12-20T07:13:15.960Z,11.57
2022-12-20T07:15:44.909Z,10.70
2022-12-20T07:18:13.052Z,10.48
2022-12-20T07:20:41.421Z,9.35
2022-12-20T07:23:09.010Z,7.93
2022-12-20T07:25:36.764Z,7.75
2022-12-20T07:28:05.074Z,7.30
2022-12-20T07:30:32.728Z,7.05
2022-12-20T07:33:01.892Z,7.90
2022-12-20T07:35:29.495Z,7.68
2022-12-20T07:37:57.263Z,7.40
2022-12-20T07:40:24.834Z,7.70
2022-12-20T07:42:52.438Z,7.72
2022-12-20T07:45:20.059Z,7.82
2022-12-20T07:47:48.048Z,7.60
2022-12-20T07:50:17.241Z,7.60
2022-12-20T07:52:47.052Z,7.57
2022-12-20T07:55:15.828Z,10.40
2022-12-20T07:57:45.881Z,7.88
2022-12-20T08:00:15.022Z,8.52
2022-12-20T08:02:46.041Z,9.18
2022-12-20T08:05:15.705Z,9.45
2022-12-20T08:07:46.825Z,9.13
2022-12-20T08:10:15.574Z,9.50
2022-12-20T08:12:45.131Z,8.75
2022-12-20T08:15:13.175Z,9.38
2022-12-20T08:17:40.983Z,9.88
2022-12-20T08:20:09.631Z,10.82
2022-12-20T08:22:37.361Z,12.43
2022-12-20T08:25:07.679Z,11.05
2022-12-20T08:27:35.460Z,11.73
2022-12-20T08:30:03.168Z,12.98
2022-12-20T08:32:30.818Z,10.65
2022-12-20T08:34:58.389Z,12.57
2022-12-20T08:37:26.127Z,10.05
2022-12-20T08:39:53.797Z,9.65
2022-12-20T08:42:22.918Z,10.85
2022-12-20T08:44:50.489Z,9.95
2022-12-20T08:47:18.192Z,8.57
2022-12-20T08:49:47.990Z,8.90
2022-12-20T08:52:16.090Z,9.45
2022-12-20T08:54:43.775Z,9.30
2022-12-20T08:57:11.357Z,12.13
2022-12-20T08:59:40.351Z,11.52
2022-12-20T09:02:08.254Z,10.52
2022-12-20T09:04:36.143Z,10.73
2022-12-20T09:07:03.843Z,12.82
2022-12-20T09:09:31.614Z,12.75
2022-12-20T09:11:59.228Z,11.93
2022-12-20T09:14:26.817Z,11.98
2022-12-20T09:16:55.851Z,13.20
2022-12-20T09:19:23.468Z,11.15
2022-12-20T09:21:51.145Z,10.95
2022-12-20T09:24:18.738Z,10.90
2022-12-20T09:26:46.322Z,11.43
2022-12-20T09:29:25.053Z,10.23
2022-12-20T09:31:56.202Z,10.48
2022-12-20T09:34:23.816Z,11.55
2022-12-20T09:36:52.806Z,10.95
2022-12-20T09:39:20.357Z,12.70
2022-12-20T09:41:48.225Z,12.25
2022-12-20T09:44:19.664Z,11.63
2022-12-20T09:46:48.653Z,12.75
2022-12-20T09:49:19.424Z,11.45
2022-12-20T09:52:01.253Z,12.45
2022-12-20T09:54:34.429Z,12.63
2022-12-20T09:57:07.973Z,11.48
2022-12-20T09:59:40.404Z,12.25
2022-12-20T10:02:35.417Z,11.18
2022-12-20T10:04:59.440Z,11.85
2022-12-20T10:07:38.982Z,12.50
2022-12-20T10:10:21.157Z,11.02
2022-12-20T10:12:53.465Z,11.13
2022-12-20T10:15:23.572Z,10.38
2022-12-20T10:18:01.561Z,10.32
2022-12-20T10:20:40.179Z,9.48
2022-12-20T10:23:14.332Z,8.52
2022-12-20T10:25:43.197Z,9.32
2022-12-20T10:28:15.167Z,9.43
2022-12-20T10:30:43.261Z,8.50
2022-12-20T10:33:16.389Z,8.57
2022-12-20T10:35:45.965Z,8.57
2022-12-20T10:38:17.553Z,8.45
2022-12-20T10:41:19.929Z,7.95
2022-12-20T10:43:41.594Z,8.90
2022-12-20T10:46:10.034Z,9.13
2022-12-20T10:48:39.373Z,9.95
2022-12-20T10:51:16.733Z,10.38
2022-12-20T10:53:57.734Z,9.98
2022-12-20T10:56:28.529Z,10.25
2022-12-20T10:58:59.246Z,8.25
2022-12-20T11:01:31.228Z,8.32
2022-12-20T11:04:01.696Z,7.90
2022-12-20T11:06:43.192Z,8.27
2022-12-20T11:09:24.577Z,8.02
2022-12-20T11:12:03.544Z,7.88
2022-12-20T11:14:38.687Z,7.85
2022-12-20T11:17:19.217Z,6.63
2022-12-20T11:19:59.552Z,7.10
2022-12-20T11:22:37.421Z,8.73
2022-12-20T11:25:18.886Z,9.45
2022-12-20T11:27:52.595Z,8.00
2022-12-20T11:30:21.549Z,7.53
2022-12-20T11:33:12.561Z,8.73
2022-12-20T11:35:48.648Z,9.43
2022-12-20T11:38:26.873Z,9.85
2022-12-20T11:41:09.555Z,11.15
2022-12-20T11:44:15.816Z,11.30
2022-12-20T11:46:45.687Z,10.75
2022-12-20T11:49:34.340Z,10.85
2022-12-20T11:52:07.027Z,10.60
2022-12-20T11:54:39.855Z,11.27
2022-12-20T11:57:14.561Z,10.88
2022-12-20T11:59:46.696Z,11.90
2022-12-20T12:02:18.274Z,11.63
2022-12-20T12:04:50.698Z,14.70
2022-12-20T12:07:20.745Z,13.57
2022-12-20T12:09:55.816Z,13.43
2022-12-20T12:12:28.028Z,12.52
2022-12-20T12:15:00.857Z,11.82
2022-12-20T12:20:17.749Z,11.38
2022-12-20T12:22:46.531Z,10.65
2022-12-20T12:25:18.701Z,11.07
2022-12-20T12:27:46.799Z,10.98
2022-12-20T12:30:15.843Z,11.70
2022-12-20T12:32:46.025Z,10.98
2022-12-20T12:35:39.353Z,11.13
2022-12-20T12:41:10.337Z,11.85
2022-12-20T12:43:47.719Z,11.85
2022-12-20T12:46:18.372Z,12.75
2022-12-20T12:48:50.115Z,12.23
2022-12-20T12:51:23.891Z,11.68
2022-12-20T12:53:53.510Z,12.38
2022-12-20T12:56:45.866Z,12.18
2022-12-20T12:59:42.164Z,10.65
2022-12-20T13:02:52.183Z,9.13
2022-12-20T13:05:37.972Z,11.55
2022-12-20T13:08:16.832Z,10.73
2022-12-20T13:11:00.314Z,10.40
2022-12-20T13:13:29.614Z,9.43
2022-12-20T13:16:12.482Z,11.43
2022-12-20T13:18:40.088Z,10.65
2022-12-20T13:21:36.920Z,9.80
2022-12-20T13:24:38.153Z,10.15
2022-12-20T13:27:31.357Z,10.90
2022-12-20T13:30:03.514Z,10.13
2022-12-20T13:32:55.842Z,10.75
2022-12-20T13:35:32.280Z,10.83
2022-12-20T13:38:02.187Z,10.32
2022-12-20T13:40:35.507Z,8.00
2022-12-20T13:43:09.636Z,9.02
2022-12-20T13:45:40.142Z,9.57
2022-12-20T13:48:11.732Z,9.18
2022-12-20T13:50:40.959Z,7.90
2022-12-20T13:53:17.387Z,6.60
2022-12-20T13:55:45.396Z,6.60
2022-12-20T13:58:15.494Z,8.23
2022-12-20T14:00:45.233Z,8.00
2022-12-20T14:03:20.811Z,6.75
2022-12-20T14:05:48.768Z,6.30
2022-12-20T14:08:18.603Z,5.57
2022-12-20T14:10:46.108Z,7.00
2022-12-20T14:13:22.490Z,8.10
2022-12-20T14:15:51.927Z,7.70
2022-12-20T14:18:20.958Z,7.90
2022-12-20T14:20:51.162Z,11.13
2022-12-20T14:23:20.690Z,15.05
2022-12-20T14:25:49.976Z,15.20
2022-12-20T14:28:26.983Z,15.07
2022-12-20T14:30:57.187Z,15.18
2022-12-20T14:33:30.597Z,12.82
2022-12-20T14:36:00.058Z,11.70
2022-12-20T14:38:31.424Z,12.68
2022-12-20T14:40:59.165Z,11.10
2022-12-20T14:43:29.314Z,12.25
2022-12-20T14:46:19.845Z,18.27
2022-12-20T14:48:48.090Z,13.02
2022-12-20T14:51:21.243Z,11.95
2022-12-20T14:53:49.756Z,12.35
2022-12-20T14:56:22.609Z,12.27
2022-12-20T14:59:04.537Z,10.98
2022-12-20T15:01:37.230Z,10.57
2022-12-20T15:04:22.856Z,9.57
2022-12-20T15:06:52.484Z,10.43
2022-12-20T15:09:20.165Z,9.00
2022-12-20T15:11:48.177Z,7.65
2022-12-20T15:14:23.795Z,8.68
2022-12-20T15:16:53.278Z,8.40
2022-12-20T15:19:20.756Z,8.88
2022-12-20T15:21:48.372Z,9.02
2022-12-20T15:24:18.663Z,7.35
2022-12-20T15:26:46.517Z,9.95
2022-12-20T15:29:16.810Z,9.45
2022-12-20T15:31:45.324Z,10.27
2022-12-20T15:34:16.617Z,10.05
2022-12-20T15:36:44.546Z,9.80
2022-12-20T15:39:14.745Z,10.82
2022-12-20T15:41:46.110Z,10.35
2022-12-20T15:44:15.110Z,9.70
2022-12-20T15:46:44.297Z,7.75
2022-12-20T15:49:17.112Z,7.97
2022-12-20T15:51:46.307Z,8.57
2022-12-20T15:54:22.710Z,8.73
2022-12-20T15:56:50.261Z,8.15
2022-12-20T15:59:57.568Z,7.05
2022-12-20T16:02:10.134Z,6.22
2022-12-20T16:04:38.965Z,5.05
2022-12-20T16:07:14.521Z,5.82
2022-12-20T16:09:41.967Z,4.13
2022-12-20T16:12:14.202Z,4.43
2022-12-20T16:14:42.165Z,5.18
2022-12-20T16:17:13.918Z,4.25
2022-12-20T16:19:43.316Z,3.95
2022-12-20T16:22:15.547Z,4.25
2022-12-20T16:24:43.493Z,4.70
2022-12-20T16:27:11.031Z,3.90
2022-12-20T16:29:38.521Z,4.85
2022-12-20T16:32:13.172Z,4.00
2022-12-20T16:34:40.653Z,4.10
2022-12-20T16:37:09.446Z,4.00
2022-12-20T16:39:36.889Z,3.47
2022-12-20T16:42:04.585Z,4.25
2022-12-20T16:44:32.940Z,4.57
2022-12-20T16:47:00.490Z,4.35
2022-12-20T16:49:28.053Z,5.28
2022-12-20T16:51:55.521Z,5.22
2022-12-20T16:54:24.308Z,5.05
2022-12-20T16:56:55.958Z,5.30
2022-12-20T16:59:23.716Z,4.03
2022-12-20T17:01:53.381Z,4.63
2022-12-20T17:04:21.449Z,4.63
2022-12-20T17:06:49.117Z,5.25
2022-12-20T17:12:04.256Z,7.40
2022-12-20T17:14:31.903Z,27.88
2022-12-20T17:17:01.659Z,13.45
2022-12-20T17:19:29.124Z,38.25
2022-12-20T17:24:41.951Z,22.48
2022-12-20T17:27:11.615Z,9.15
2022-12-20T17:29:39.083Z,7.68
2022-12-20T17:32:19.217Z,8.55
2022-12-20T17:34:46.821Z,6.85
2022-12-20T17:37:14.422Z,6.07
2022-12-20T17:39:41.908Z,10.90
2022-12-20T17:42:13.436Z,7.00
2022-12-20T17:44:41.437Z,12.50
2022-12-20T17:47:08.931Z,9.40
2022-12-20T17:49:36.499Z,7.95
2022-12-20T17:52:04.186Z,6.65
2022-12-20T17:54:38.955Z,5.88
2022-12-20T17:57:10.897Z,6.13
2022-12-20T17:59:39.710Z,6.80
2022-12-20T18:02:18.943Z,6.78
2022-12-20T18:04:47.155Z,8.48
2022-12-20T18:07:14.710Z,8.57
2022-12-20T18:09:42.223Z,9.18
2022-12-20T18:12:11.344Z,9.82
2022-12-20T18:14:40.130Z,11.35
2022-12-20T18:17:07.694Z,11.30
2022-12-20T18:19:35.211Z,11.40
2022-12-20T18:22:04.580Z,11.30
2022-12-20T18:24:32.048Z,6.80
2022-12-20T18:26:59.521Z,6.68
2022-12-20T18:29:27.026Z,8.77
2022-12-20T18:31:55.920Z,7.65
2022-12-20T18:34:23.666Z,8.70
2022-12-20T18:36:51.143Z,8.20
2022-12-20T18:39:19.524Z,8.15
2022-12-20T18:41:47.955Z,7.80
2022-12-20T18:44:15.439Z,6.55
2022-12-20T18:46:42.939Z,5.90
2022-12-20T18:49:11.785Z,6.28
2022-12-20T18:51:39.360Z,5.95
2022-12-20T18:54:08.542Z,6.80
2022-12-20T18:56:38.191Z,6.78
2022-12-20T18:59:11.322Z,8.00
2022-12-20T19:01:40.489Z,7.30
2022-12-20T19:04:10.792Z,6.13
2022-12-20T19:06:39.879Z,6.47
2022-12-20T19:09:09.786Z,6.68
2022-12-20T19:11:37.303Z,6.55
2022-12-20T19:14:04.837Z,6.75
2022-12-20T19:16:33.153Z,6.43
2022-12-20T19:19:01.720Z,6.80
2022-12-20T19:21:31.249Z,6.65
2022-12-20T19:24:02.147Z,6.70
2022-12-20T19:26:29.937Z,7.10
2022-12-20T19:28:57.650Z,6.57
2022-12-20T19:31:26.680Z,6.35
2022-12-20T19:33:55.573Z,6.10
2022-12-20T19:36:25.636Z,6.03
2022-12-20T19:38:55.784Z,5.53
2022-12-20T19:41:25.831Z,6.22
2022-12-20T19:43:53.385Z,5.97
2022-12-20T19:46:28.249Z,5.60
2022-12-20T19:48:57.172Z,5.75
2022-12-20T19:51:25.662Z,5.40
2022-12-20T19:53:54.427Z,6.03
2022-12-20T19:56:25.225Z,6.07
2022-12-20T19:58:53.166Z,6.53
2022-12-20T20:01:21.278Z,6.15
2022-12-20T20:03:49.039Z,7.35
2022-12-20T20:06:16.551Z,7.18
2022-12-20T20:08:44.745Z,7.60
2022-12-20T20:11:12.737Z,8.77
2022-12-20T20:13:41.609Z,8.48
2022-12-20T20:16:10.822Z,9.02
2022-12-20T20:18:39.331Z,9.88
2022-12-20T20:21:08.939Z,8.20
2022-12-20T20:23:37.671Z,8.32
2022-12-20T20:26:08.137Z,7.95
2022-12-20T20:28:43.687Z,7.78
2022-12-20T20:31:16.141Z,7.68
2022-12-20T20:33:44.193Z,7.90
2022-12-20T20:36:14.558Z,7.95
2022-12-20T20:38:42.051Z,7.22
2022-12-20T20:41:09.592Z,6.43
2022-12-20T20:43:37.980Z,6.50
2022-12-20T20:46:06.885Z,6.68
2022-12-20T20:48:36.048Z,6.72
2022-12-20T20:51:03.585Z,6.80
2022-12-20T20:53:34.218Z,6.47
2022-12-20T20:56:01.982Z,6.63
2022-12-20T20:58:29.491Z,7.75
2022-12-20T21:00:58.066Z,9.18
2022-12-20T21:03:25.790Z,10.20
2022-12-20T21:08:42.181Z,8.27
2022-12-20T21:11:10.427Z,8.07
2022-12-20T21:13:37.975Z,6.88
2022-12-20T21:16:07.103Z,6.90
2022-12-20T21:18:34.593Z,6.60
2022-12-20T21:21:08.355Z,5.70
2022-12-20T21:23:35.863Z,6.47
2022-12-20T21:26:03.583Z,6.35
2022-12-20T21:28:31.691Z,7.20
2022-12-20T21:31:00.526Z,5.85
2022-12-20T21:33:28.275Z,5.80
2022-12-20T21:36:00.218Z,5.75
2022-12-20T21:38:29.150Z,5.70
2022-12-20T21:41:00.816Z,5.75
2022-12-20T21:43:28.358Z,5.90
2022-12-20T21:45:56.002Z,5.90
2022-12-20T21:48:23.729Z,5.47
2022-12-20T21:50:59.537Z,6.28
2022-12-20T21:53:27.061Z,5.93
2022-12-20T21:55:56.710Z,6.47
2022-12-20T21:58:24.238Z,6.78
2022-12-20T22:00:55.074Z,6.47
2022-12-20T22:03:24.041Z,6.95
2022-12-20T22:05:53.587Z,6.55
2022-12-20T22:08:21.996Z,6.47
2022-12-20T22:10:50.287Z,6.63
2022-12-20T22:13:19.065Z,6.63
2022-12-20T22:15:46.542Z,7.30
2022-12-20T22:18:14.000Z,6.43
2022-12-20T22:20:44.944Z,6.53
2022-12-20T22:23:12.447Z,6.47
2022-12-20T22:25:39.968Z,6.15
2022-12-20T22:28:07.674Z,6.00
2022-12-20T22:30:36.608Z,6.28
2022-12-20T22:33:04.306Z,6.05
2022-12-20T22:35:31.921Z,5.88
2022-12-20T22:37:59.378Z,6.40
2022-12-20T22:40:26.871Z,5.32
2022-12-20T22:42:54.354Z,7.15
2022-12-20T22:45:21.892Z,6.28
2022-12-20T22:47:50.819Z,6.00
2022-12-20T22:50:18.529Z,6.03
2022-12-20T22:52:46.106Z,6.10
2022-12-20T22:55:13.648Z,6.15
2022-12-20T22:57:41.314Z,7.40
2022-12-20T23:00:13.039Z,6.13
2022-12-20T23:02:41.417Z,7.38
2022-12-20T23:05:10.682Z,6.10
2022-12-20T23:07:38.193Z,5.78
2022-12-20T23:10:26.501Z,6.10
2022-12-20T23:13:07.949Z,5.80
2022-12-20T23:15:41.626Z,6.55
2022-12-20T23:18:09.141Z,6.10
2022-12-20T23:20:55.654Z,6.18
2022-12-20T23:23:23.107Z,6.43
2022-12-20T23:25:50.580Z,6.05
2022-12-20T23:28:18.073Z,5.82
2022-12-20T23:30:45.838Z,6.35
2022-12-20T23:33:13.322Z,5.82
2022-12-20T23:35:42.140Z,6.28
2022-12-20T23:38:09.591Z,6.38
2022-12-20T23:40:37.098Z,6.72
2022-12-20T23:43:04.563Z,6.63
2022-12-20T23:45:32.340Z,6.10
2022-12-20T23:48:00.187Z,5.90
2022-12-20T23:50:27.704Z,6.78
2022-12-20T23:52:56.499Z,6.47
2022-12-20T23:55:23.980Z,6.30
2022-12-20T23:57:51.717Z,5.88
